Strona główna
METAR-TAF:

METAR-TAF

Lotnisko :

Turyn, Włochy

Szerokość geograficzna: 45-05-20N, Długość geograficzna: 007-36-20E, wysokość: 288 m

Aktualna obserwacja pogody

Raport powstał 2 godziny i 46 minut temu, godzina 16:50 UTC
Wiatr 4 kt od wschodnio-południowy wschód, zmienny między północno-północny wschód i południowo-południowy wschód
Temperatura 28°C
Wilgotność 40%
Ciśnienie 1010 hPa
Widzialność 10 km lub więcej
Brak chmur poniżej 1500 m i brak chmur cumulonimbus

METAR: LIMA 171650Z 12004KT 030V160 CAVOK 28/13 Q1010

czas: 21:36 (19:36 UTC)


TAF: brakujący

Obserwacja i prognoza pogody dla ponad 4000 lotnisk (raport METAR i TAF).

Dostępne stacje oznaczono żółtymi i czerwonymi punktami na mapie.

Najedź kursorem aby zobaczyć nazwę stacji.

Kliknij aby zobaczyć obserwacje i prognozy pogody.

Aby zmienić mapę: kliknij na zielony przycisk z czarnym krzyżykiem, aby powiększyć; na zielony przycisk z myślnikiem, aby pomniejszyć; na zielone strzałki, aby przejść do map sąsiednich.


METAR-TAF: